Felts Field
KSFF : now visible

Airfield :











YOU CAN JOIN US ON...

 
LOGIN :

Register | Disclaimer

   EN    FR    IT 

 









Legend :    VFR   Marginal VFR   IFR   Intensive IFR   Very Intensive IFR
Visi :
Ceiling :
>= 8 km
>= 3000ft
5 to 8 km
1000 to 3000 ft
1500m to 5 km
500 to 1000 ft
800 to 1500m
200 to 500 ft
< 800m
< 200 ft
Symbols :   Thunderstorms  Fog  Heavy snow  Heavy precipitations  Wind > 20 kt






- Airport Elevation : 1953 ft


KSFF - Felts Field

CURRENT METAR :
  • 251853Z 17005KT 10SM OVC070 19/07 A3004 RMK AO2 SLP167 T01890072 $

EXPIRED METARs :
  • 251753Z 22006KT 10SM OVC080 18/08 A3006 RMK AO2 SLP173 T01780083 10178 20078 51001 $
  • 251653Z 00000KT 10SM BKN085 OVC110 17/08 A3005 RMK AO2 SLP172 T01720078

TAF KSFF
Valid from the 25 at 18:00 until the 26 at 18:00 UTC


251739Z 2518/2618 VRB04KT P6SM -SHRA BKN090 OVC100
FM252100 20007KT P6SM -RA OVC050
FM260230 VRB04KT P6SM SCT020 BKN045
KZSE FIR / North America



MET'MAP, your aeronautical weather chart ! - Copyright ORBIFLY December 2007 - Disclaimer

ORBIFLY MET'MAP TEAM :

Programming & Development : Alexandra Zaïnal
Concept & original design : Baudouin d'Aumeries
Assistance for programming : Marc-Olivier Méhu
Technical & hardware support : Manuel Goepfert

Contact : metmap@orbifly.com




SOURCES & CREDITS :

   NOAA       Earth
Advisory